Time;durP1;ratioP1;P1;durP2;ratioP2;P2;SDS_P1;SDS_P2;PMS_P1;PMS_P2;Temp;Humidity;BMP_temperature;BMP_pressure;BME280_temperature;BME280_humidity;BME280_pressure;Samples;Min_cycle;Max_cycle;Signal;HPM_P1;HPM_P2
2022/12/31 00:02:03;;;;;;;2.10;0.30;;;;;;;;;;5009322;28;20026;-76
2022/12/31 00:04:29;;;;;;;0.40;0.27;;;;;;;;;;5007876;28;20033;-76
2022/12/31 00:06:57;;;;;;;0.30;0.30;;;;;;;;;;5015516;28;20029;-76
2022/12/31 00:09:23;;;;;;;0.60;0.40;;;;;;;;;;5011405;28;20955;-76
2022/12/31 00:11:49;;;;;;;0.70;0.30;;;;;;;;;;5013885;28;20099;-78
2022/12/31 00:14:15;;;;;;;0.50;0.30;;;;;;;;;;5012682;28;20033;-78
2022/12/31 00:16:42;;;;;;;0.30;0.27;;;;;;;;;;5010097;28;20095;-77
2022/12/31 00:19:09;;;;;;;0.67;0.27;;;;;;;;;;5008463;28;20044;-77
2022/12/31 00:21:35;;;;;;;1.03;0.70;;;;;;;;;;5026547;28;20029;-78
2022/12/31 00:24:02;;;;;;;1.03;0.40;;;;;;;;;;5008956;28;20042;-77
2022/12/31 00:26:31;;;;;;;1.37;0.37;;;;;;;;;;5012113;28;20060;-77
2022/12/31 00:28:58;;;;;;;0.60;0.20;;;;;;;;;;5006127;28;20117;-76
2022/12/31 00:31:29;;;;;;;0.53;0.40;;;;;;;;;;5021672;28;20044;-77
2022/12/31 00:33:55;;;;;;;1.23;0.50;;;;;;;;;;5021756;28;20025;-76
2022/12/31 00:36:24;;;;;;;0.50;0.23;;;;;;;;;;5026017;28;20028;-77
2022/12/31 00:38:52;;;;;;;0.83;0.40;;;;;;;;;;5005404;28;20524;-76
2022/12/31 00:41:21;;;;;;;3.30;0.27;;;;;;;;;;5005514;28;20041;-77
2022/12/31 00:43:49;;;;;;;3.78;0.55;;;;;;;;;;5024810;28;20052;-78
2022/12/31 00:46:16;;;;;;;0.30;0.20;;;;;;;;;;5022019;28;20046;-77
2022/12/31 00:48:42;;;;;;;0.43;0.20;;;;;;;;;;5009558;28;20033;-77
2022/12/31 00:51:10;;;;;;;1.40;0.30;;;;;;;;;;5004416;28;20033;-77
2022/12/31 00:53:36;;;;;;;0.50;0.20;;;;;;;;;;5006690;28;20033;-78
2022/12/31 00:56:07;;;;;;;0.30;0.10;;;;;;;;;;5006976;28;20033;-76
2022/12/31 00:58:33;;;;;;;2.03;0.20;;;;;;;;;;5002926;28;20122;-78
2022/12/31 01:01:07;;;;;;;1.33;0.23;;;;;;;;;;5011232;28;20033;-78
2022/12/31 01:03:33;;;;;;;1.00;0.50;;;;;;;;;;5004800;28;20038;-78
2022/12/31 01:05:59;;;;;;;0.30;0.20;;;;;;;;;;5019860;28;20038;-76
2022/12/31 01:08:25;;;;;;;0.30;0.10;;;;;;;;;;5026585;28;20036;-78
2022/12/31 01:13:38;;;;;;;1.30;0.32;;;;;;;;;;5024335;28;20106;-78
2022/12/31 01:16:10;;;;;;;0.65;0.30;;;;;;;;;;5006232;28;20049;-76
2022/12/31 01:18:36;;;;;;;0.32;0.10;;;;;;;;;;5006109;28;20116;-77
2022/12/31 01:21:03;;;;;;;0.30;0.20;;;;;;;;;;5025178;28;20028;-77
2022/12/31 01:23:30;;;;;;;0.25;0.10;;;;;;;;;;5024512;28;20075;-76
2022/12/31 01:26:01;;;;;;;0.15;0.10;;;;;;;;;;5011819;28;20374;-77
2022/12/31 01:28:27;;;;;;;0.47;0.17;;;;;;;;;;5004844;28;20033;-77
2022/12/31 01:30:53;;;;;;;1.23;0.20;;;;;;;;;;5012129;28;20048;-78
2022/12/31 01:33:19;;;;;;;1.42;0.40;;;;;;;;;;5004675;28;20096;-77
2022/12/31 01:35:45;;;;;;;0.20;0.20;;;;;;;;;;5005546;28;20112;-77
2022/12/31 01:38:11;;;;;;;0.10;0.10;;;;;;;;;;5011582;28;20033;-77
2022/12/31 01:40:38;;;;;;;0.20;0.10;;;;;;;;;;5011887;28;20038;-77
2022/12/31 01:43:14;;;;;;;0.30;0.10;;;;;;;;;;5018391;28;20156;-78
2022/12/31 01:45:43;;;;;;;0.63;0.10;;;;;;;;;;5011820;28;20029;-77
2022/12/31 01:48:11;;;;;;;0.70;0.10;;;;;;;;;;5024009;28;20116;-76
2022/12/31 01:50:39;;;;;;;0.13;0.10;;;;;;;;;;5013369;28;20028;-78
2022/12/31 01:53:07;;;;;;;1.65;0.10;;;;;;;;;;5008199;28;20383;-78
2022/12/31 01:55:35;;;;;;;0.35;0.10;;;;;;;;;;5024302;28;20045;-78
2022/12/31 01:58:17;;;;;;;0.43;0.10;;;;;;;;;;5008990;28;20036;-77
2022/12/31 02:00:43;;;;;;;0.10;0.10;;;;;;;;;;5023124;28;20040;-78
2022/12/31 02:03:10;;;;;;;0.20;0.10;;;;;;;;;;5003838;28;20374;-77
2022/12/31 02:05:43;;;;;;;0.20;0.10;;;;;;;;;;5011809;28;20041;-76
2022/12/31 02:08:10;;;;;;;0.35;0.10;;;;;;;;;;5012920;28;20133;-76
2022/12/31 02:10:36;;;;;;;0.20;0.10;;;;;;;;;;5023414;28;20469;-78
2022/12/31 02:13:02;;;;;;;0.45;0.10;;;;;;;;;;5006930;28;20524;-78
2022/12/31 02:15:43;;;;;;;0.17;0.10;;;;;;;;;;5028030;28;20057;-77
2022/12/31 02:18:14;;;;;;;1.92;0.47;;;;;;;;;;5006695;28;20033;-78
2022/12/31 02:21:00;;;;;;;2.55;0.10;;;;;;;;;;5024435;28;20021;-77
2022/12/31 02:23:26;;;;;;;0.20;0.10;;;;;;;;;;5021887;28;20895;-76
2022/12/31 02:26:11;;;;;;;1.40;0.10;;;;;;;;;;5019458;28;20042;-78
2022/12/31 02:28:55;;;;;;;0.10;0.10;;;;;;;;;;5008981;28;20048;-78
2022/12/31 02:31:25;;;;;;;0.17;0.17;;;;;;;;;;5004559;28;20037;-76
2022/12/31 02:33:54;;;;;;;1.77;0.15;;;;;;;;;;5022250;28;20506;-79
2022/12/31 02:36:23;;;;;;;0.30;0.10;;;;;;;;;;5016833;28;20045;-78
2022/12/31 02:38:49;;;;;;;0.22;0.10;;;;;;;;;;5020898;28;20043;-78
2022/12/31 02:44:02;;;;;;;0.47;0.10;;;;;;;;;;5028533;28;20051;-77
2022/12/31 02:46:33;;;;;;;0.40;0.10;;;;;;;;;;5024663;28;20163;-77
2022/12/31 02:49:19;;;;;;;1.52;0.20;;;;;;;;;;5022548;28;20029;-78
2022/12/31 02:51:52;;;;;;;0.52;0.20;;;;;;;;;;5007741;28;20465;-77
2022/12/31 02:54:28;;;;;;;1.10;0.20;;;;;;;;;;5003286;28;20030;-77
2022/12/31 02:56:54;;;;;;;1.73;0.52;;;;;;;;;;5006638;28;20462;-77
2022/12/31 03:02:13;;;;;;;0.75;0.10;;;;;;;;;;5027275;28;20120;-76
2022/12/31 03:04:43;;;;;;;0.57;0.10;;;;;;;;;;5010739;28;20044;-78
2022/12/31 03:07:11;;;;;;;1.20;0.10;;;;;;;;;;5024280;28;20022;-77
2022/12/31 03:09:37;;;;;;;0.52;0.20;;;;;;;;;;5009765;28;20029;-75
2022/12/31 03:14:49;;;;;;;1.25;0.10;;;;;;;;;;5026218;28;20044;-78
2022/12/31 03:17:18;;;;;;;0.35;0.10;;;;;;;;;;5008691;28;20018;-76
2022/12/31 03:22:29;;;;;;;1.17;0.20;;;;;;;;;;5028570;28;20427;-75
2022/12/31 03:27:41;;;;;;;0.43;0.13;;;;;;;;;;5025154;28;20168;-76
2022/12/31 03:30:07;;;;;;;0.63;0.20;;;;;;;;;;5026584;28;20029;-76
2022/12/31 03:32:33;;;;;;;0.00;0.00;;;;;;;;;;5005893;28;20111;-78
2022/12/31 03:34:59;;;;;;;0.20;0.00;;;;;;;;;;5025899;28;20026;-77
2022/12/31 03:37:25;;;;;;;0.38;0.10;;;;;;;;;;5007650;28;20018;-77
2022/12/31 03:39:51;;;;;;;0.20;0.10;;;;;;;;;;5007921;28;20032;-78
2022/12/31 03:42:17;;;;;;;0.35;0.10;;;;;;;;;;5006417;28;20022;-76
2022/12/31 03:44:43;;;;;;;0.65;0.10;;;;;;;;;;5005740;28;20037;-77
2022/12/31 03:47:09;;;;;;;1.65;0.10;;;;;;;;;;5026660;28;20419;-77
2022/12/31 03:49:35;;;;;;;0.25;0.10;;;;;;;;;;5005322;28;20630;-76
2022/12/31 03:52:02;;;;;;;0.35;0.10;;;;;;;;;;5011699;28;20099;-78
2022/12/31 03:54:28;;;;;;;0.10;0.10;;;;;;;;;;5006526;28;20745;-77
2022/12/31 03:56:54;;;;;;;0.30;0.00;;;;;;;;;;5008325;28;20029;-77
2022/12/31 03:59:23;;;;;;;0.05;0.05;;;;;;;;;;5008665;28;20117;-77
2022/12/31 04:01:49;;;;;;;0.00;0.00;;;;;;;;;;5008652;28;20029;-78
2022/12/31 04:04:17;;;;;;;1.65;0.10;;;;;;;;;;5006014;28;20033;-77
2022/12/31 04:06:43;;;;;;;0.05;0.00;;;;;;;;;;5025509;28;20516;-77
2022/12/31 04:09:09;;;;;;;0.10;0.00;;;;;;;;;;5004972;28;20052;-77
2022/12/31 04:11:35;;;;;;;0.43;0.10;;;;;;;;;;5006252;28;20030;-77
2022/12/31 04:14:01;;;;;;;1.05;0.20;;;;;;;;;;5025111;28;20064;-78
2022/12/31 04:16:27;;;;;;;0.10;0.10;;;;;;;;;;5004485;28;20454;-77
2022/12/31 04:18:56;;;;;;;0.10;0.08;;;;;;;;;;5026260;28;20034;-78
2022/12/31 04:21:24;;;;;;;1.10;0.10;;;;;;;;;;5011036;28;20147;-76
2022/12/31 04:23:50;;;;;;;0.47;0.10;;;;;;;;;;5011110;28;20037;-77
2022/12/31 04:26:16;;;;;;;0.28;0.10;;;;;;;;;;5025325;28;20029;-76
2022/12/31 04:28:42;;;;;;;0.13;0.00;;;;;;;;;;5011142;28;20038;-77
2022/12/31 04:31:10;;;;;;;0.90;0.00;;;;;;;;;;5011052;28;20386;-78
2022/12/31 04:33:36;;;;;;;0.30;0.10;;;;;;;;;;5025977;28;21688;-76
2022/12/31 04:36:06;;;;;;;0.70;0.10;;;;;;;;;;5010135;28;20129;-78
2022/12/31 04:38:33;;;;;;;0.45;0.10;;;;;;;;;;5025870;28;20022;-78
2022/12/31 04:41:18;;;;;;;0.80;0.10;;;;;;;;;;5025292;28;20052;-78
2022/12/31 04:43:48;;;;;;;0.85;0.10;;;;;;;;;;5010189;28;20067;-77
2022/12/31 04:46:14;;;;;;;1.30;0.10;;;;;;;;;;5025102;28;20112;-76
2022/12/31 04:48:40;;;;;;;1.25;0.63;;;;;;;;;;5012201;28;20454;-77
2022/12/31 04:51:06;;;;;;;0.45;0.20;;;;;;;;;;5010950;28;20029;-77
2022/12/31 04:53:35;;;;;;;0.43;0.00;;;;;;;;;;5004527;28;20462;-76
2022/12/31 04:56:03;;;;;;;0.90;0.30;;;;;;;;;;5010636;28;20817;-76
2022/12/31 04:58:29;;;;;;;0.10;0.10;;;;;;;;;;5005560;28;20417;-76
2022/12/31 05:00:55;;;;;;;0.90;0.10;;;;;;;;;;5021028;28;21025;-77
2022/12/31 05:03:23;;;;;;;0.57;0.20;;;;;;;;;;5004815;28;20029;-77
2022/12/31 05:05:49;;;;;;;0.77;0.10;;;;;;;;;;5002697;28;20037;-77
2022/12/31 05:08:18;;;;;;;1.38;0.20;;;;;;;;;;5005453;28;20030;-74
2022/12/31 05:10:45;;;;;;;3.30;0.30;;;;;;;;;;5011315;28;20033;-77
2022/12/31 05:13:11;;;;;;;1.05;0.10;;;;;;;;;;5022816;28;20102;-76
2022/12/31 05:15:38;;;;;;;1.27;0.10;;;;;;;;;;5078659;23;20053;-76
2022/12/31 05:18:04;;;;;;;4.38;0.52;;;;;;;;;;5038031;28;20087;-75
2022/12/31 05:20:30;;;;;;;1.65;0.20;;;;;;;;;;5039701;28;20032;-78
2022/12/31 05:22:56;;;;;;;3.40;0.50;;;;;;;;;;5038491;28;20043;-75
2022/12/31 05:25:23;;;;;;;0.52;0.10;;;;;;;;;;5039147;28;20098;-75
2022/12/31 05:27:52;;;;;;;1.88;0.30;;;;;;;;;;5034028;28;20076;-76
2022/12/31 05:30:18;;;;;;;0.40;0.15;;;;;;;;;;5034144;28;20116;-76
2022/12/31 05:32:45;;;;;;;1.88;0.20;;;;;;;;;;5034384;28;20036;-76
2022/12/31 05:35:11;;;;;;;1.88;0.40;;;;;;;;;;5036572;28;20885;-76
2022/12/31 05:37:37;;;;;;;3.20;0.75;;;;;;;;;;5036509;28;20025;-77
2022/12/31 05:40:03;;;;;;;1.80;0.20;;;;;;;;;;5037199;28;20021;-76
2022/12/31 05:42:29;;;;;;;0.98;0.35;;;;;;;;;;5034947;28;20030;-76
2022/12/31 05:44:55;;;;;;;2.90;0.30;;;;;;;;;;5036396;28;20036;-77
2022/12/31 05:47:21;;;;;;;0.90;0.10;;;;;;;;;;5033450;28;20052;-75
2022/12/31 05:49:48;;;;;;;1.05;0.20;;;;;;;;;;5041115;28;20036;-77
2022/12/31 05:52:14;;;;;;;2.80;0.30;;;;;;;;;;5035213;28;20132;-77
2022/12/31 05:54:42;;;;;;;0.98;0.38;;;;;;;;;;5035829;28;20120;-76
2022/12/31 05:57:08;;;;;;;2.45;0.30;;;;;;;;;;5036922;28;20041;-76
2022/12/31 05:59:34;;;;;;;1.35;0.20;;;;;;;;;;5033377;28;20034;-77
2022/12/31 06:02:00;;;;;;;0.98;0.35;;;;;;;;;;5034326;28;20348;-76
2022/12/31 06:04:26;;;;;;;1.98;0.65;;;;;;;;;;5033140;28;21796;-77
2022/12/31 06:06:53;;;;;;;2.38;0.68;;;;;;;;;;5033420;28;20524;-77
2022/12/31 06:09:19;;;;;;;0.63;0.17;;;;;;;;;;5035094;28;20057;-77
2022/12/31 06:11:45;;;;;;;4.22;0.30;;;;;;;;;;5032580;28;20037;-76
2022/12/31 06:14:14;;;;;;;0.90;0.20;;;;;;;;;;5034273;28;20125;-75
2022/12/31 06:16:41;;;;;;;1.30;0.30;;;;;;;;;;5036744;28;20037;-77
2022/12/31 06:19:11;;;;;;;1.30;0.20;;;;;;;;;;5032343;28;20034;-76
2022/12/31 06:21:37;;;;;;;2.22;0.30;;;;;;;;;;5036315;28;20056;-76
2022/12/31 06:24:06;;;;;;;2.83;0.32;;;;;;;;;;5034734;28;20099;-77
2022/12/31 06:26:32;;;;;;;3.20;0.40;;;;;;;;;;5036117;28;20044;-77
2022/12/31 06:28:58;;;;;;;2.95;0.60;;;;;;;;;;5037272;28;20041;-77
2022/12/31 06:31:24;;;;;;;2.70;0.32;;;;;;;;;;5048757;28;20025;-76
2022/12/31 06:33:50;;;;;;;1.48;0.30;;;;;;;;;;5036919;28;20040;-76
2022/12/31 06:36:20;;;;;;;1.17;0.20;;;;;;;;;;5038835;28;20029;-77
2022/12/31 06:38:51;;;;;;;1.40;0.22;;;;;;;;;;5040808;28;20052;-75
2022/12/31 06:41:17;;;;;;;3.03;0.63;;;;;;;;;;5037729;28;20021;-76
2022/12/31 06:43:43;;;;;;;1.80;0.30;;;;;;;;;;5037408;28;20091;-77
2022/12/31 06:46:11;;;;;;;3.08;0.30;;;;;;;;;;5043718;28;20029;-78
2022/12/31 06:48:38;;;;;;;2.05;0.40;;;;;;;;;;5042514;28;20369;-77
2022/12/31 06:51:07;;;;;;;1.48;0.55;;;;;;;;;;5037983;28;20033;-77
2022/12/31 06:53:33;;;;;;;1.90;0.30;;;;;;;;;;5039661;28;20473;-75
2022/12/31 06:56:07;;;;;;;0.43;0.20;;;;;;;;;;5036637;28;20045;-76
2022/12/31 06:58:33;;;;;;;2.63;0.20;;;;;;;;;;5037988;28;20033;-75
2022/12/31 07:01:18;;;;;;;2.20;0.30;;;;;;;;;;5036543;28;20033;-77
2022/12/31 07:04:03;;;;;;;0.75;0.20;;;;;;;;;;5038063;28;20079;-78
2022/12/31 07:06:32;;;;;;;0.70;0.28;;;;;;;;;;5038979;28;20108;-77
2022/12/31 07:09:08;;;;;;;3.80;0.43;;;;;;;;;;5039167;28;20029;-76
2022/12/31 07:11:53;;;;;;;2.92;0.40;;;;;;;;;;5040111;28;20033;-75
2022/12/31 07:14:25;;;;;;;1.60;0.30;;;;;;;;;;5037236;28;20060;-78
2022/12/31 07:17:02;;;;;;;1.65;0.40;;;;;;;;;;5038535;28;20525;-77
2022/12/31 07:19:36;;;;;;;2.05;0.30;;;;;;;;;;5047353;28;20033;-76
2022/12/31 07:22:02;;;;;;;2.00;0.22;;;;;;;;;;5038183;28;20030;-77
2022/12/31 07:24:28;;;;;;;2.05;0.40;;;;;;;;;;5037455;28;20041;-77
2022/12/31 07:27:04;;;;;;;1.08;0.20;;;;;;;;;;5036910;28;20043;-77
2022/12/31 07:29:51;;;;;;;1.63;0.32;;;;;;;;;;5037817;28;20034;-78
2022/12/31 07:32:23;;;;;;;2.70;0.40;;;;;;;;;;4990814;28;20030;-77
2022/12/31 07:35:12;;;;;;;2.47;0.35;;;;;;;;;;5038825;28;20045;-77
2022/12/31 07:37:41;;;;;;;1.65;0.20;;;;;;;;;;5043737;28;20029;-76
2022/12/31 07:40:19;;;;;;;1.10;0.30;;;;;;;;;;5036171;28;20029;-76
2022/12/31 07:43:06;;;;;;;1.50;0.40;;;;;;;;;;5054387;28;20033;-77
2022/12/31 07:45:38;;;;;;;1.67;0.40;;;;;;;;;;5038816;28;20136;-77
2022/12/31 07:48:25;;;;;;;1.98;0.45;;;;;;;;;;5037442;28;20175;-78
2022/12/31 07:50:53;;;;;;;1.25;0.47;;;;;;;;;;5036058;28;20639;-77
2022/12/31 07:53:19;;;;;;;0.88;0.30;;;;;;;;;;5039368;28;21812;-78
2022/12/31 07:55:45;;;;;;;3.60;0.30;;;;;;;;;;5038001;28;20040;-78
2022/12/31 07:58:35;;;;;;;1.10;0.30;;;;;;;;;;5040172;28;20021;-76
2022/12/31 08:01:01;;;;;;;2.65;0.38;;;;;;;;;;5031887;28;20057;-76
2022/12/31 08:03:38;;;;;;;1.48;0.40;;;;;;;;;;5040530;28;20446;-76
2022/12/31 08:06:09;;;;;;;1.05;0.40;;;;;;;;;;5036245;28;20115;-77
2022/12/31 08:08:35;;;;;;;1.30;0.40;;;;;;;;;;5047434;28;20037;-77
2022/12/31 08:11:04;;;;;;;2.20;0.35;;;;;;;;;;5035786;28;20043;-77
2022/12/31 08:13:31;;;;;;;3.53;0.35;;;;;;;;;;5046595;28;20024;-78
2022/12/31 08:15:57;;;;;;;1.25;0.32;;;;;;;;;;5037736;28;20037;-77
2022/12/31 08:18:25;;;;;;;2.80;0.55;;;;;;;;;;5035552;28;20033;-77
2022/12/31 08:21:10;;;;;;;2.13;0.73;;;;;;;;;;5035938;28;20025;-78
2022/12/31 08:23:42;;;;;;;3.45;0.35;;;;;;;;;;5035623;28;20448;-78
2022/12/31 08:26:17;;;;;;;1.58;0.30;;;;;;;;;;5035289;28;20548;-78
2022/12/31 08:29:01;;;;;;;2.22;0.85;;;;;;;;;;5036362;28;20025;-77
2022/12/31 08:31:32;;;;;;;3.47;0.35;;;;;;;;;;5045122;28;20025;-78
2022/12/31 08:33:58;;;;;;;3.95;0.50;;;;;;;;;;5045530;28;20091;-75
2022/12/31 08:36:24;;;;;;;3.63;0.50;;;;;;;;;;5033800;28;20391;-76
2022/12/31 08:39:00;;;;;;;2.08;0.60;;;;;;;;;;5043173;28;20025;-78
2022/12/31 08:41:36;;;;;;;2.13;0.50;;;;;;;;;;5035307;28;20029;-77
2022/12/31 08:44:21;;;;;;;1.95;0.40;;;;;;;;;;5036588;28;20025;-76
2022/12/31 08:46:52;;;;;;;3.17;0.50;;;;;;;;;;5045086;28;20037;-76
2022/12/31 08:49:18;;;;;;;2.13;0.50;;;;;;;;;;5035189;28;20032;-78
2022/12/31 08:51:44;;;;;;;3.90;0.40;;;;;;;;;;5035750;28;20059;-77
2022/12/31 08:54:11;;;;;;;2.75;0.90;;;;;;;;;;5037343;28;20091;-77
2022/12/31 08:56:44;;;;;;;3.10;0.60;;;;;;;;;;5038710;28;20033;-76
2022/12/31 08:59:13;;;;;;;1.48;0.50;;;;;;;;;;5035089;28;20033;-75
2022/12/31 09:02:00;;;;;;;4.88;0.50;;;;;;;;;;5038777;28;20070;-78
2022/12/31 09:04:41;;;;;;;1.48;0.40;;;;;;;;;;4998961;28;20054;-75
2022/12/31 09:07:08;;;;;;;2.85;0.50;;;;;;;;;;5037564;28;20029;-78
2022/12/31 09:09:53;;;;;;;1.67;0.50;;;;;;;;;;5037073;28;20036;-76
2022/12/31 09:12:25;;;;;;;1.35;0.50;;;;;;;;;;5035209;28;20033;-77
2022/12/31 09:14:58;;;;;;;1.35;0.55;;;;;;;;;;5039581;28;20588;-75
2022/12/31 09:17:43;;;;;;;2.05;0.63;;;;;;;;;;5034744;28;20090;-76
2022/12/31 09:20:30;;;;;;;2.88;0.52;;;;;;;;;;5036176;28;20022;-77
2022/12/31 09:22:57;;;;;;;2.63;0.45;;;;;;;;;;5038958;28;20025;-78
2022/12/31 09:25:23;;;;;;;2.92;0.50;;;;;;;;;;5035745;28;20095;-76
2022/12/31 09:28:08;;;;;;;0.70;0.20;;;;;;;;;;5033246;28;20454;-77
2022/12/31 09:30:55;;;;;;;2.90;0.40;;;;;;;;;;5036081;28;20030;-76
2022/12/31 09:33:41;;;;;;;2.25;0.40;;;;;;;;;;5029820;28;20132;-78
2022/12/31 09:36:10;;;;;;;1.77;0.47;;;;;;;;;;5033972;28;20037;-77
2022/12/31 09:38:42;;;;;;;6.47;0.40;;;;;;;;;;5035098;28;20098;-78
2022/12/31 09:41:16;;;;;;;2.50;0.47;;;;;;;;;;5035303;28;20044;-77
2022/12/31 09:43:48;;;;;;;3.67;0.50;;;;;;;;;;5041511;28;20029;-75
2022/12/31 09:46:23;;;;;;;4.13;0.50;;;;;;;;;;5045144;28;20037;-75
2022/12/31 09:48:49;;;;;;;0.90;0.20;;;;;;;;;;5036295;28;20077;-77
2022/12/31 09:51:29;;;;;;;2.50;0.32;;;;;;;;;;5034008;28;20781;-77
2022/12/31 09:54:13;;;;;;;2.60;0.82;;;;;;;;;;5034233;28;20076;-78
2022/12/31 09:56:43;;;;;;;2.97;0.95;;;;;;;;;;5036035;28;20470;-77
2022/12/31 09:59:10;;;;;;;1.80;0.60;;;;;;;;;;5034762;28;20022;-78
2022/12/31 10:01:36;;;;;;;2.60;0.60;;;;;;;;;;5037114;28;20068;-77
2022/12/31 10:04:21;;;;;;;5.43;0.88;;;;;;;;;;5035257;28;20037;-76
2022/12/31 10:07:04;;;;;;;3.47;1.02;;;;;;;;;;5051070;28;20044;-77
2022/12/31 10:09:30;;;;;;;2.28;0.30;;;;;;;;;;5038760;28;20372;-75
2022/12/31 10:11:59;;;;;;;3.38;0.80;;;;;;;;;;5041372;28;20458;-77
2022/12/31 10:14:25;;;;;;;3.15;0.50;;;;;;;;;;5039752;28;20055;-78
2022/12/31 10:17:10;;;;;;;1.70;0.40;;;;;;;;;;5040215;28;20044;-77
2022/12/31 10:19:44;;;;;;;4.18;0.80;;;;;;;;;;5040044;28;20114;-76
2022/12/31 10:22:29;;;;;;;3.47;0.57;;;;;;;;;;5040380;28;20029;-78
2022/12/31 10:24:55;;;;;;;2.90;0.40;;;;;;;;;;5041330;28;20048;-76
2022/12/31 10:27:51;;;;;;;2.75;0.50;;;;;;;;;;5039413;28;20029;-76
2022/12/31 10:30:19;;;;;;;3.40;0.55;;;;;;;;;;4978673;28;20116;-78
2022/12/31 10:32:45;;;;;;;4.22;0.90;;;;;;;;;;5037825;28;20469;-78
2022/12/31 10:35:14;;;;;;;3.55;0.73;;;;;;;;;;5039016;28;21515;-76
2022/12/31 10:37:43;;;;;;;2.70;0.65;;;;;;;;;;5036681;28;20404;-77
2022/12/31 10:40:18;;;;;;;3.33;0.60;;;;;;;;;;5039298;28;20029;-76
2022/12/31 10:43:03;;;;;;;4.78;0.55;;;;;;;;;;5036986;28;20029;-78
2022/12/31 10:45:29;;;;;;;3.42;0.40;;;;;;;;;;5040451;28;21623;-77
2022/12/31 10:48:07;;;;;;;3.60;0.60;;;;;;;;;;5044968;28;20037;-78
2022/12/31 10:50:52;;;;;;;2.53;0.77;;;;;;;;;;5040920;28;20067;-76
2022/12/31 10:53:37;;;;;;;2.47;0.60;;;;;;;;;;5047471;28;20037;-77
2022/12/31 10:56:09;;;;;;;3.72;0.82;;;;;;;;;;5038315;28;20048;-78
2022/12/31 10:58:35;;;;;;;3.28;1.05;;;;;;;;;;5040930;28;20442;-78
2022/12/31 11:01:07;;;;;;;3.17;0.52;;;;;;;;;;5038518;28;20030;-77
2022/12/31 11:04:03;;;;;;;3.55;0.52;;;;;;;;;;5036375;28;20159;-79
2022/12/31 11:06:48;;;;;;;2.05;0.55;;;;;;;;;;5005858;28;20037;-77
2022/12/31 11:09:20;;;;;;;4.00;0.60;;;;;;;;;;5035968;28;20029;-78
2022/12/31 11:12:04;;;;;;;2.05;0.60;;;;;;;;;;5048323;28;20038;-77
2022/12/31 11:14:37;;;;;;;4.75;0.60;;;;;;;;;;5047148;28;20041;-78
2022/12/31 11:17:06;;;;;;;3.40;0.50;;;;;;;;;;5042588;28;20080;-78
2022/12/31 11:19:38;;;;;;;4.40;0.50;;;;;;;;;;5036282;28;20108;-76
2022/12/31 11:22:04;;;;;;;4.63;0.63;;;;;;;;;;5035032;28;20029;-76
2022/12/31 11:24:42;;;;;;;3.15;0.70;;;;;;;;;;5034680;28;20464;-78
2022/12/31 11:27:09;;;;;;;2.70;0.50;;;;;;;;;;5035083;28;20037;-75
2022/12/31 11:29:56;;;;;;;2.08;0.75;;;;;;;;;;5035749;28;20106;-76
2022/12/31 11:32:27;;;;;;;1.55;0.40;;;;;;;;;;5045110;28;20037;-78
2022/12/31 11:35:13;;;;;;;3.30;0.30;;;;;;;;;;5035701;28;20033;-76
2022/12/31 11:37:42;;;;;;;1.08;0.30;;;;;;;;;;5036099;28;20021;-77
2022/12/31 11:40:26;;;;;;;2.55;0.90;;;;;;;;;;5034653;28;20106;-77
2022/12/31 11:43:18;;;;;;;2.40;0.70;;;;;;;;;;5033526;28;20024;-77
2022/12/31 11:46:03;;;;;;;2.55;0.70;;;;;;;;;;5033468;28;20033;-77
2022/12/31 11:48:31;;;;;;;3.38;0.70;;;;;;;;;;5037782;28;20044;-77
2022/12/31 11:51:09;;;;;;;9.10;0.80;;;;;;;;;;5037993;28;20363;-78
2022/12/31 11:53:56;;;;;;;3.20;0.60;;;;;;;;;;5048029;28;20033;-77
2022/12/31 11:56:27;;;;;;;4.68;0.90;;;;;;;;;;5037036;28;20086;-78
2022/12/31 11:58:54;;;;;;;3.40;0.50;;;;;;;;;;5038665;28;20036;-76
2022/12/31 12:01:27;;;;;;;4.03;0.80;;;;;;;;;;5040459;28;20116;-77
2022/12/31 12:03:53;;;;;;;3.78;0.73;;;;;;;;;;5046085;28;20032;-79
2022/12/31 12:06:25;;;;;;;3.20;0.77;;;;;;;;;;5033418;28;20098;-76
2022/12/31 12:08:54;;;;;;;;;;;;;;;;;;5036793;28;20037;-75
2022/12/31 12:11:24;;;;;;;5.95;1.05;;;;;;;;;;5051589;28;20358;-78
2022/12/31 12:13:50;;;;;;;4.72;0.60;;;;;;;;;;5041120;28;20134;-77
2022/12/31 12:16:20;;;;;;;4.47;1.05;;;;;;;;;;5039368;28;20462;-76
2022/12/31 12:18:51;;;;;;;5.25;1.25;;;;;;;;;;5049481;28;20044;-76
2022/12/31 12:21:21;;;;;;;3.05;0.60;;;;;;;;;;5040505;28;20018;-77
2022/12/31 12:23:54;;;;;;;1.85;0.60;;;;;;;;;;5036018;28;20029;-75
2022/12/31 12:26:29;;;;;;;3.75;0.88;;;;;;;;;;5033701;28;20030;-78
2022/12/31 12:28:59;;;;;;;3.85;0.93;;;;;;;;;;5033917;28;20033;-76
2022/12/31 12:31:26;;;;;;;5.15;0.88;;;;;;;;;;5034777;28;20040;-78
2022/12/31 12:33:54;;;;;;;2.63;0.90;;;;;;;;;;5043801;28;20056;-76
2022/12/31 12:36:20;;;;;;;2.47;0.77;;;;;;;;;;5032596;28;20466;-77
2022/12/31 12:38:46;;;;;;;2.50;0.80;;;;;;;;;;5045406;28;20044;-76
2022/12/31 12:41:22;;;;;;;8.27;0.88;;;;;;;;;;5034990;28;20117;-76
2022/12/31 12:44:01;;;;;;;1.70;0.98;;;;;;;;;;5043836;28;20029;-77
2022/12/31 12:46:30;;;;;;;4.28;1.15;;;;;;;;;;5036889;28;20039;-78
2022/12/31 12:48:57;;;;;;;3.72;0.60;;;;;;;;;;5043163;28;20098;-76
2022/12/31 12:51:43;;;;;;;2.97;0.77;;;;;;;;;;5031246;28;20056;-76
2022/12/31 12:54:15;;;;;;;4.47;1.23;;;;;;;;;;5035081;28;20435;-76
2022/12/31 12:56:41;;;;;;;1.33;0.40;;;;;;;;;;5033829;28;20033;-78
2022/12/31 12:59:19;;;;;;;6.63;0.80;;;;;;;;;;5043242;28;20442;-78
2022/12/31 13:01:54;;;;;;;11.27;1.60;;;;;;;;;;5033525;28;20598;-76
2022/12/31 13:04:20;;;;;;;10.20;1.15;;;;;;;;;;5031525;28;20091;-77
2022/12/31 13:06:50;;;;;;;7.15;0.98;;;;;;;;;;5030596;28;20052;-77
2022/12/31 13:09:29;;;;;;;7.93;1.65;;;;;;;;;;5033590;28;20094;-77
2022/12/31 13:12:08;;;;;;;7.68;1.10;;;;;;;;;;5034086;28;20033;-77
2022/12/31 13:14:34;;;;;;;2.10;0.60;;;;;;;;;;5034457;28;20029;-77
2022/12/31 13:17:23;;;;;;;7.57;1.00;;;;;;;;;;5032044;28;20787;-76
2022/12/31 13:19:52;;;;;;;7.30;0.80;;;;;;;;;;5031554;28;20033;-77
2022/12/31 13:22:29;;;;;;;3.92;0.70;;;;;;;;;;5032512;28;20116;-77
2022/12/31 13:24:55;;;;;;;7.10;1.00;;;;;;;;;;5035522;28;20044;-76
2022/12/31 13:27:30;;;;;;;5.35;1.02;;;;;;;;;;5034053;28;20037;-77
2022/12/31 13:29:59;;;;;;;4.20;1.23;;;;;;;;;;5033404;28;20033;-77
2022/12/31 13:32:30;;;;;;;3.17;0.85;;;;;;;;;;5034280;28;20155;-78
2022/12/31 13:35:02;;;;;;;4.33;1.00;;;;;;;;;;5035256;28;20112;-77
2022/12/31 13:37:31;;;;;;;6.70;1.33;;;;;;;;;;5034224;28;20295;-76
2022/12/31 13:40:16;;;;;;;8.82;1.38;;;;;;;;;;5035111;28;20029;-77
2022/12/31 13:42:45;;;;;;;6.32;1.20;;;;;;;;;;5034431;28;21691;-76
2022/12/31 13:45:16;;;;;;;3.30;0.93;;;;;;;;;;5035804;28;20112;-77
2022/12/31 13:47:48;;;;;;;5.38;1.30;;;;;;;;;;5033934;28;20107;-77
2022/12/31 13:50:16;;;;;;;4.35;1.38;;;;;;;;;;5035668;28;20056;-76
2022/12/31 13:52:45;;;;;;;7.13;2.17;;;;;;;;;;5034140;28;20037;-77
2022/12/31 13:55:20;;;;;;;5.50;1.65;;;;;;;;;;5037827;28;20070;-78
2022/12/31 13:57:56;;;;;;;3.70;1.25;;;;;;;;;;5037028;28;20052;-77
2022/12/31 14:00:24;;;;;;;7.00;1.52;;;;;;;;;;5033270;28;20052;-77
2022/12/31 14:02:56;;;;;;;7.00;1.23;;;;;;;;;;5034815;28;20026;-78
2022/12/31 14:05:25;;;;;;;3.45;0.88;;;;;;;;;;5035086;28;20029;-77
2022/12/31 14:08:05;;;;;;;7.03;1.52;;;;;;;;;;5038867;28;20025;-76
2022/12/31 14:10:41;;;;;;;4.43;1.10;;;;;;;;;;5039095;28;20086;-76
2022/12/31 14:13:07;;;;;;;3.45;1.10;;;;;;;;;;5040404;28;20461;-76
2022/12/31 14:15:36;;;;;;;4.25;1.63;;;;;;;;;;5037529;28;20037;-76
2022/12/31 14:18:16;;;;;;;7.30;1.40;;;;;;;;;;5037644;28;20044;-75
2022/12/31 14:20:47;;;;;;;5.85;1.10;;;;;;;;;;5042740;28;20021;-77
2022/12/31 14:23:16;;;;;;;4.07;1.20;;;;;;;;;;5037556;28;20021;-77
2022/12/31 14:25:47;;;;;;;9.52;1.58;;;;;;;;;;5040702;28;20083;-77
2022/12/31 14:28:33;;;;;;;4.28;1.38;;;;;;;;;;5039635;28;20022;-76
2022/12/31 14:31:08;;;;;;;4.32;1.50;;;;;;;;;;5030260;28;20052;-78
2022/12/31 14:33:39;;;;;;;6.22;1.75;;;;;;;;;;5034329;28;20029;-75
2022/12/31 14:36:22;;;;;;;3.20;1.30;;;;;;;;;;5039559;28;20236;-78
2022/12/31 14:38:57;;;;;;;5.85;1.20;;;;;;;;;;5038124;28;20040;-76
2022/12/31 14:41:27;;;;;;;5.80;1.45;;;;;;;;;;5037931;28;20029;-78
2022/12/31 14:44:03;;;;;;;6.88;1.60;;;;;;;;;;5046959;28;20032;-78
2022/12/31 14:46:52;;;;;;;2.15;1.15;;;;;;;;;;5035484;28;20509;-77
2022/12/31 14:49:32;;;;;;;3.75;1.10;;;;;;;;;;5043907;28;20037;-77
2022/12/31 14:52:28;;;;;;;7.22;1.55;;;;;;;;;;5039337;28;20127;-76
2022/12/31 14:55:17;;;;;;;5.95;1.42;;;;;;;;;;4977155;28;20046;-77
2022/12/31 14:57:44;;;;;;;5.80;1.70;;;;;;;;;;5040922;28;20148;-75
2022/12/31 15:00:25;;;;;;;5.07;2.05;;;;;;;;;;5035616;28;20035;-76
2022/12/31 15:02:53;;;;;;;7.50;1.35;;;;;;;;;;5038204;28;20040;-78
2022/12/31 15:05:21;;;;;;;3.78;1.20;;;;;;;;;;5041193;28;20064;-75
2022/12/31 15:07:52;;;;;;;5.78;1.35;;;;;;;;;;5038170;28;20029;-77
2022/12/31 15:10:18;;;;;;;4.13;1.17;;;;;;;;;;5046328;28;20025;-77
2022/12/31 15:12:55;;;;;;;1.80;0.95;;;;;;;;;;5046481;28;20067;-78
2022/12/31 15:15:21;;;;;;;3.63;1.13;;;;;;;;;;5036177;28;20037;-77
2022/12/31 15:18:05;;;;;;;5.78;1.52;;;;;;;;;;5035804;28;20037;-75
2022/12/31 15:20:37;;;;;;;3.28;0.82;;;;;;;;;;5045839;28;20033;-76
2022/12/31 15:23:11;;;;;;;8.32;1.30;;;;;;;;;;5041731;28;20072;-78
2022/12/31 15:25:39;;;;;;;3.28;1.13;;;;;;;;;;5035312;28;20041;-77